createdAt,value
2022-09-29T00:01:03.360Z,58.99
2022-09-29T00:03:31.848Z,58.86
2022-09-29T00:06:00.100Z,58.73
2022-09-29T00:08:32.196Z,58.54
2022-09-29T00:11:00.484Z,58.73
2022-09-29T00:13:28.575Z,59.12
2022-09-29T00:15:58.742Z,59.20
2022-09-29T00:18:27.779Z,58.99
2022-09-29T00:21:01.208Z,59.38
2022-09-29T00:23:31.834Z,59.54
2022-09-29T00:26:05.823Z,59.39
2022-09-29T00:28:35.332Z,59.49
2022-09-29T00:31:04.946Z,59.80
2022-09-29T00:33:35.192Z,60.19
2022-09-29T00:36:06.218Z,60.13
2022-09-29T00:38:36.031Z,59.50
2022-09-29T00:41:04.520Z,59.53
2022-09-29T00:43:51.504Z,59.33
2022-09-29T00:46:24.899Z,60.50
2022-09-29T00:48:54.379Z,59.61
2022-09-29T00:51:23.047Z,59.56
2022-09-29T00:53:52.636Z,59.84
2022-09-29T00:56:21.958Z,59.64
2022-09-29T00:58:55.344Z,59.59
2022-09-29T01:01:24.266Z,59.88
2022-09-29T01:03:56.987Z,59.97
2022-09-29T01:06:30.051Z,60.25
2022-09-29T01:09:02.403Z,60.41
2022-09-29T01:11:31.587Z,60.24
2022-09-29T01:14:03.831Z,60.16
2022-09-29T01:16:32.461Z,60.20
2022-09-29T01:19:04.047Z,60.18
2022-09-29T01:21:41.959Z,60.24
2022-09-29T01:24:32.391Z,60.16
2022-09-29T01:27:12.526Z,59.99
2022-09-29T01:29:55.993Z,60.15
2022-09-29T01:32:37.671Z,60.02
2022-09-29T01:35:13.972Z,60.51
2022-09-29T01:37:54.862Z,60.20
2022-09-29T01:40:30.907Z,59.75
2022-09-29T01:43:07.016Z,59.39
2022-09-29T01:45:38.587Z,59.72
2022-09-29T01:48:11.941Z,59.87
2022-09-29T01:50:43.868Z,60.12
2022-09-29T01:53:16.418Z,59.77
2022-09-29T01:55:50.577Z,59.34
2022-09-29T01:58:22.094Z,59.46
2022-09-29T02:00:55.735Z,59.38
2022-09-29T02:03:29.230Z,59.42
2022-09-29T02:06:01.148Z,59.30
2022-09-29T02:08:34.111Z,59.28
2022-09-29T02:11:05.284Z,59.13
2022-09-29T02:13:39.102Z,59.29
2022-09-29T02:16:14.500Z,59.25
2022-09-29T02:18:50.079Z,59.75
2022-09-29T02:21:18.262Z,59.94
2022-09-29T02:23:46.717Z,59.68
2022-09-29T02:26:15.950Z,59.47
2022-09-29T02:28:45.222Z,59.40
2022-09-29T02:31:13.966Z,59.34
2022-09-29T02:33:42.348Z,59.21
2022-09-29T02:36:25.898Z,59.04
2022-09-29T02:38:57.213Z,59.69
2022-09-29T02:41:34.396Z,59.30
2022-09-29T02:44:24.484Z,59.91
2022-09-29T02:47:06.896Z,60.05
2022-09-29T02:49:52.280Z,59.24
2022-09-29T02:52:31.702Z,59.48
2022-09-29T02:55:08.725Z,59.41
2022-09-29T02:57:48.932Z,60.11
2022-09-29T03:00:19.768Z,60.33
2022-09-29T03:02:48.350Z,59.70
2022-09-29T03:05:18.844Z,59.74
2022-09-29T03:07:48.511Z,59.58
2022-09-29T03:10:17.809Z,59.76
2022-09-29T03:12:47.112Z,59.79
2022-09-29T03:15:15.599Z,59.43
2022-09-29T03:17:43.763Z,59.54
2022-09-29T03:20:12.461Z,59.29
2022-09-29T03:22:40.866Z,59.09
2022-09-29T03:25:10.638Z,59.30
2022-09-29T03:27:39.250Z,59.39
2022-09-29T03:30:09.375Z,59.40
2022-09-29T03:32:37.792Z,59.36
2022-09-29T03:35:07.312Z,59.83
2022-09-29T03:37:35.864Z,59.85
2022-09-29T03:40:05.674Z,59.79
2022-09-29T03:42:35.101Z,59.70
2022-09-29T03:45:03.670Z,59.74
2022-09-29T03:47:31.805Z,59.71
2022-09-29T03:50:00.166Z,59.45
2022-09-29T03:52:28.720Z,59.74
2022-09-29T03:54:58.052Z,59.90
2022-09-29T03:57:27.126Z,60.06
2022-09-29T03:59:57.386Z,59.68
2022-09-29T04:02:25.603Z,59.94
2022-09-29T04:04:54.014Z,59.97
2022-09-29T04:07:22.132Z,59.77
2022-09-29T04:09:50.219Z,60.17
2022-09-29T04:12:18.555Z,59.88
2022-09-29T04:14:46.629Z,59.97
2022-09-29T04:17:16.018Z,60.25
2022-09-29T04:19:44.419Z,60.64
2022-09-29T04:22:13.412Z,60.69
2022-09-29T04:24:41.442Z,60.78
2022-09-29T04:27:09.775Z,60.49
2022-09-29T04:29:37.929Z,60.61
2022-09-29T04:32:06.566Z,60.33
2022-09-29T04:34:36.261Z,60.20
2022-09-29T04:37:04.331Z,60.02
2022-09-29T04:39:32.662Z,59.66
2022-09-29T04:42:00.914Z,59.62
2022-09-29T04:44:28.996Z,59.61
2022-09-29T04:46:57.062Z,59.54
2022-09-29T04:49:25.504Z,59.79
2022-09-29T04:51:54.946Z,59.72
2022-09-29T04:54:23.039Z,59.63
2022-09-29T04:56:51.622Z,59.64
2022-09-29T04:59:19.816Z,59.57
2022-09-29T05:01:49.521Z,59.61
2022-09-29T05:04:17.900Z,59.53
2022-09-29T05:06:46.040Z,59.64
2022-09-29T05:09:15.683Z,59.75
2022-09-29T05:11:44.167Z,60.04
2022-09-29T05:14:12.676Z,60.88
2022-09-29T05:16:40.881Z,60.93
2022-09-29T05:19:10.791Z,60.49
2022-09-29T05:21:38.902Z,60.25
2022-09-29T05:24:07.315Z,60.05
2022-09-29T05:26:37.159Z,60.00
2022-09-29T05:29:05.275Z,60.11
2022-09-29T05:31:33.529Z,60.81
2022-09-29T05:34:01.892Z,60.66
2022-09-29T05:36:29.955Z,60.20
2022-09-29T05:38:58.009Z,59.77
2022-09-29T05:41:26.840Z,59.82
2022-09-29T05:43:56.962Z,59.79
2022-09-29T05:46:25.021Z,59.87
2022-09-29T05:48:53.373Z,59.94
2022-09-29T05:51:23.615Z,59.81
2022-09-29T05:53:52.452Z,59.50
2022-09-29T05:56:22.575Z,59.61
2022-09-29T05:58:50.924Z,59.59
2022-09-29T06:01:22.005Z,60.39
2022-09-29T06:03:51.392Z,60.33
2022-09-29T06:06:21.515Z,59.80
2022-09-29T06:08:50.920Z,59.78
2022-09-29T06:11:22.134Z,59.52
2022-09-29T06:13:52.257Z,59.35
2022-09-29T06:16:24.370Z,59.96
2022-09-29T06:18:52.680Z,60.27
2022-09-29T06:21:23.802Z,60.88
2022-09-29T06:23:52.172Z,60.89
2022-09-29T06:26:24.126Z,61.32
2022-09-29T06:28:52.714Z,61.02
2022-09-29T06:31:25.252Z,60.38
2022-09-29T06:33:53.800Z,60.82
2022-09-29T06:36:43.558Z,61.57
2022-09-29T06:39:13.378Z,61.83
2022-09-29T06:41:44.424Z,62.17
2022-09-29T06:44:12.545Z,61.46
2022-09-29T06:46:41.937Z,60.73
2022-09-29T06:49:12.619Z,61.67
2022-09-29T06:51:45.786Z,61.26
2022-09-29T06:54:16.482Z,61.25
2022-09-29T06:56:47.939Z,61.59
2022-09-29T06:59:16.854Z,60.88
2022-09-29T07:01:49.657Z,60.86
2022-09-29T07:04:19.016Z,61.60
2022-09-29T07:06:47.202Z,62.46
2022-09-29T07:09:16.939Z,61.78
2022-09-29T07:11:46.757Z,60.92
2022-09-29T07:14:14.982Z,61.41
2022-09-29T07:16:43.285Z,60.59
2022-09-29T07:19:12.959Z,59.98
2022-09-29T07:21:41.285Z,59.72
2022-09-29T07:24:10.152Z,59.06
2022-09-29T07:26:38.475Z,59.35
2022-09-29T07:29:07.748Z,59.30
2022-09-29T07:31:48.894Z,59.19
2022-09-29T07:34:21.579Z,59.83
2022-09-29T07:36:50.001Z,59.04
2022-09-29T07:39:18.326Z,59.75
2022-09-29T07:41:46.594Z,59.33
2022-09-29T07:44:14.615Z,58.99
2022-09-29T07:46:43.856Z,59.33
2022-09-29T07:49:12.286Z,59.31
2022-09-29T07:51:41.736Z,59.41
2022-09-29T07:54:09.815Z,59.12
2022-09-29T07:56:38.956Z,59.18
2022-09-29T07:59:07.193Z,59.39
2022-09-29T08:01:35.674Z,59.14
2022-09-29T08:04:04.293Z,58.83
2022-09-29T08:06:33.155Z,59.17
2022-09-29T08:09:05.092Z,59.25
2022-09-29T08:11:35.256Z,59.25
2022-09-29T08:14:03.362Z,59.13
2022-09-29T08:16:32.474Z,59.09
2022-09-29T08:19:01.308Z,59.03
2022-09-29T08:21:29.808Z,58.67
2022-09-29T08:23:57.917Z,58.65
2022-09-29T08:26:39.806Z,58.58
2022-09-29T08:29:14.396Z,58.67
2022-09-29T08:31:44.765Z,58.53
2022-09-29T08:34:14.630Z,58.22
2022-09-29T08:36:43.426Z,57.54
2022-09-29T08:39:13.193Z,57.31
2022-09-29T08:41:54.240Z,56.91
2022-09-29T08:44:37.675Z,56.47
2022-09-29T08:47:16.486Z,56.02
2022-09-29T08:49:51.042Z,56.28
2022-09-29T08:52:23.813Z,55.91
2022-09-29T08:54:55.832Z,56.29
2022-09-29T08:57:26.434Z,56.00
2022-09-29T08:59:57.895Z,55.29
2022-09-29T09:02:50.908Z,55.34
2022-09-29T09:05:36.892Z,54.14
2022-09-29T09:08:14.616Z,54.53
2022-09-29T09:10:50.455Z,54.39
2022-09-29T09:13:36.230Z,54.83
2022-09-29T09:16:17.510Z,53.67
2022-09-29T09:19:25.926Z,53.94
2022-09-29T09:22:01.246Z,49.97
2022-09-29T09:24:39.885Z,52.45
2022-09-29T09:27:14.224Z,53.18
2022-09-29T09:29:46.207Z,53.17
2022-09-29T09:32:21.790Z,53.17
2022-09-29T09:35:01.807Z,52.93
2022-09-29T09:37:40.351Z,50.02
2022-09-29T09:40:18.781Z,52.66
2022-09-29T09:42:53.936Z,49.79
2022-09-29T09:45:30.139Z,51.09
2022-09-29T09:48:04.730Z,50.21
2022-09-29T09:50:32.878Z,50.60
2022-09-29T09:53:14.552Z,51.67
2022-09-29T09:55:44.077Z,51.13
2022-09-29T09:58:35.662Z,52.21
2022-09-29T10:01:07.142Z,50.36
2022-09-29T10:03:38.173Z,51.54
2022-09-29T10:06:09.357Z,51.72
2022-09-29T10:08:42.218Z,50.86
2022-09-29T10:11:23.735Z,50.80
2022-09-29T10:13:59.754Z,49.05
2022-09-29T10:16:36.549Z,49.22
2022-09-29T10:19:06.778Z,49.55
2022-09-29T10:21:39.965Z,50.78
2022-09-29T10:24:23.170Z,49.67
2022-09-29T10:26:55.188Z,47.22
2022-09-29T10:29:29.378Z,49.87
2022-09-29T10:32:06.376Z,50.33
2022-09-29T10:34:36.868Z,48.06
2022-09-29T10:37:07.095Z,50.10
2022-09-29T10:39:42.848Z,49.33
2022-09-29T10:42:21.843Z,48.07
2022-09-29T10:44:55.489Z,48.04
2022-09-29T10:47:24.979Z,48.72
2022-09-29T10:50:09.777Z,49.65
2022-09-29T10:52:38.744Z,46.84
2022-09-29T10:55:16.912Z,49.89
2022-09-29T10:57:46.781Z,49.57
2022-09-29T11:00:29.706Z,49.84
2022-09-29T11:03:07.320Z,46.54
2022-09-29T11:05:37.848Z,46.21
2022-09-29T11:08:13.218Z,49.46
2022-09-29T11:10:42.142Z,49.46
2022-09-29T11:13:46.852Z,49.23
2022-09-29T11:16:17.644Z,46.05
2022-09-29T11:18:49.597Z,49.02
2022-09-29T11:21:51.955Z,48.41
2022-09-29T11:24:29.832Z,44.75
2022-09-29T11:27:06.978Z,45.16
2022-09-29T11:29:44.597Z,47.13
2022-09-29T11:32:34.367Z,46.50
2022-09-29T11:35:28.049Z,46.06
2022-09-29T11:38:19.610Z,45.72
2022-09-29T11:41:01.777Z,46.61
2022-09-29T11:43:46.209Z,47.51
2022-09-29T11:46:44.225Z,44.14
2022-09-29T11:49:39.445Z,45.35
2022-09-29T11:52:48.263Z,43.72
2022-09-29T11:55:41.440Z,43.07
2022-09-29T11:58:22.590Z,45.03
2022-09-29T12:01:10.816Z,41.94
2022-09-29T12:03:45.081Z,43.75
2022-09-29T12:06:51.701Z,46.83
2022-09-29T12:09:45.258Z,43.55
2022-09-29T12:12:24.816Z,43.88
2022-09-29T12:15:11.241Z,46.23
2022-09-29T12:17:43.654Z,44.40
2022-09-29T12:20:21.166Z,46.89
2022-09-29T12:22:51.920Z,44.70
2022-09-29T12:25:26.023Z,46.57
2022-09-29T12:27:57.598Z,45.76
2022-09-29T12:30:29.850Z,46.50
2022-09-29T12:33:03.428Z,46.60
2022-09-29T12:35:38.971Z,45.46
2022-09-29T12:38:16.681Z,44.85
2022-09-29T12:40:55.977Z,45.29
2022-09-29T12:43:31.343Z,45.27
2022-09-29T12:46:04.264Z,45.40
2022-09-29T12:48:47.452Z,45.98
2022-09-29T12:51:24.026Z,43.67
2022-09-29T12:54:04.229Z,45.17
2022-09-29T12:56:39.057Z,45.47
2022-09-29T12:59:13.272Z,45.59
2022-09-29T13:01:42.046Z,46.31
2022-09-29T13:04:35.512Z,46.03
2022-09-29T13:07:28.387Z,43.53
2022-09-29T13:10:23.155Z,42.48
2022-09-29T13:13:18.300Z,43.18
2022-09-29T13:15:59.109Z,42.35
2022-09-29T13:18:54.250Z,43.21
2022-09-29T13:21:39.405Z,43.99
2022-09-29T13:24:21.364Z,44.83
2022-09-29T13:27:10.098Z,45.02
2022-09-29T13:29:47.580Z,44.55
2022-09-29T13:32:16.469Z,45.07
2022-09-29T13:34:50.425Z,45.89
2022-09-29T13:37:21.067Z,45.35
2022-09-29T13:40:01.307Z,45.74
2022-09-29T13:42:44.811Z,44.66
2022-09-29T13:45:41.265Z,44.56
2022-09-29T13:48:39.375Z,44.45
2022-09-29T13:51:51.077Z,45.19
2022-09-29T13:54:28.226Z,45.13
2022-09-29T13:57:26.969Z,46.32
2022-09-29T14:00:31.697Z,45.84
2022-09-29T14:03:23.482Z,44.40
2022-09-29T14:06:22.668Z,45.51
2022-09-29T14:09:03.884Z,45.34
2022-09-29T14:11:37.264Z,46.07
2022-09-29T14:14:09.520Z,46.28
2022-09-29T14:16:47.933Z,46.64
2022-09-29T14:19:35.239Z,45.15
2022-09-29T14:22:05.598Z,44.33
2022-09-29T14:24:45.477Z,46.01
2022-09-29T14:27:31.802Z,44.68
2022-09-29T14:30:19.897Z,44.49
2022-09-29T14:32:55.965Z,44.23
2022-09-29T14:35:29.965Z,45.65
2022-09-29T14:38:03.236Z,46.28
2022-09-29T14:40:33.907Z,46.38
2022-09-29T14:43:14.664Z,46.68
2022-09-29T14:46:21.197Z,46.22
2022-09-29T14:49:21.819Z,46.48
2022-09-29T14:52:01.344Z,46.64
2022-09-29T14:54:39.546Z,47.16
2022-09-29T14:57:20.571Z,46.96
2022-09-29T15:00:02.965Z,47.19
2022-09-29T15:02:37.022Z,46.90
2022-09-29T15:05:30.597Z,47.02
2022-09-29T15:08:00.249Z,45.97
2022-09-29T15:10:30.597Z,46.81
2022-09-29T15:13:16.918Z,46.74
2022-09-29T15:15:48.781Z,45.75
2022-09-29T15:18:34.595Z,46.78
2022-09-29T15:21:12.436Z,46.06
2022-09-29T15:23:58.622Z,46.81
2022-09-29T15:26:32.325Z,46.48
2022-09-29T15:29:01.413Z,46.93
2022-09-29T15:31:34.216Z,46.94
2022-09-29T15:34:05.286Z,46.81
2022-09-29T15:36:38.064Z,46.63
2022-09-29T15:39:07.937Z,46.54
2022-09-29T15:41:36.776Z,46.83
2022-09-29T15:44:18.547Z,46.86
2022-09-29T15:46:49.821Z,46.34
2022-09-29T15:49:22.792Z,47.06
2022-09-29T15:52:01.170Z,47.29
2022-09-29T15:54:34.653Z,47.02
2022-09-29T15:57:20.828Z,47.18
2022-09-29T15:59:51.575Z,47.07
2022-09-29T16:02:29.581Z,47.36
2022-09-29T16:05:01.059Z,47.19
2022-09-29T16:07:32.868Z,47.49
2022-09-29T16:10:09.456Z,47.57
2022-09-29T16:12:41.287Z,47.67
2022-09-29T16:15:17.943Z,47.76
2022-09-29T16:17:49.350Z,47.72
2022-09-29T16:20:24.386Z,47.91
2022-09-29T16:22:53.821Z,48.01
2022-09-29T16:25:26.058Z,48.18
2022-09-29T16:27:57.170Z,48.22
2022-09-29T16:30:28.100Z,48.30
2022-09-29T16:33:07.185Z,48.33
2022-09-29T16:35:44.099Z,48.51
2022-09-29T16:38:39.588Z,48.60
2022-09-29T16:41:10.833Z,48.78
2022-09-29T16:43:42.081Z,48.50
2022-09-29T16:46:15.275Z,48.43
2022-09-29T16:48:45.711Z,48.50
2022-09-29T16:54:17.552Z,48.58
2022-09-29T16:56:48.385Z,49.00
2022-09-29T16:59:18.742Z,48.95
2022-09-29T17:01:47.387Z,49.04
2022-09-29T17:04:16.134Z,49.33
2022-09-29T17:06:48.214Z,49.51
2022-09-29T17:09:21.787Z,49.75
2022-09-29T17:11:49.981Z,49.86
2022-09-29T17:14:19.393Z,49.67
2022-09-29T17:16:47.415Z,49.60
2022-09-29T17:19:17.027Z,49.41
2022-09-29T17:21:45.583Z,49.51
2022-09-29T17:24:13.671Z,49.56
2022-09-29T17:27:04.137Z,49.55
2022-09-29T17:29:32.955Z,50.05
2022-09-29T17:32:02.458Z,50.27
2022-09-29T17:34:32.685Z,50.09
2022-09-29T17:37:01.929Z,50.02
2022-09-29T17:39:30.984Z,50.24
2022-09-29T17:42:00.613Z,50.31
2022-09-29T17:44:29.251Z,50.44
2022-09-29T17:47:11.111Z,50.49
2022-09-29T17:49:50.812Z,50.58
2022-09-29T17:52:19.959Z,50.61
2022-09-29T17:54:48.462Z,50.74
2022-09-29T17:57:24.592Z,51.04
2022-09-29T17:59:53.899Z,51.45
2022-09-29T18:02:22.993Z,51.13
2022-09-29T18:04:51.556Z,51.09
2022-09-29T18:07:19.581Z,51.00
2022-09-29T18:09:47.868Z,50.99
2022-09-29T18:12:16.192Z,51.06
2022-09-29T18:14:45.583Z,51.08
2022-09-29T18:17:13.603Z,51.11
2022-09-29T18:19:41.954Z,51.09
2022-09-29T18:22:10.640Z,51.19
2022-09-29T18:24:38.676Z,51.18
2022-09-29T18:27:07.845Z,51.32
2022-09-29T18:29:35.887Z,51.37
2022-09-29T18:32:05.287Z,51.36
2022-09-29T18:34:35.576Z,51.56
2022-09-29T18:37:04.677Z,51.62
2022-09-29T18:39:32.698Z,51.65
2022-09-29T18:42:00.973Z,51.66
2022-09-29T18:44:33.553Z,51.70
2022-09-29T18:47:01.900Z,51.67
2022-09-29T18:49:31.521Z,51.80
2022-09-29T18:51:59.647Z,51.77
2022-09-29T18:54:27.956Z,51.80
2022-09-29T18:56:55.985Z,51.82
2022-09-29T18:59:24.001Z,51.92
2022-09-29T19:01:52.407Z,51.85
2022-09-29T19:04:20.600Z,51.95
2022-09-29T19:06:49.964Z,51.96
2022-09-29T19:09:18.478Z,52.68
2022-09-29T19:11:46.871Z,52.70
2022-09-29T19:14:14.898Z,52.56
2022-09-29T19:16:44.438Z,52.48
2022-09-29T19:19:12.476Z,52.54
2022-09-29T19:21:42.085Z,52.60
2022-09-29T19:24:11.736Z,52.74
2022-09-29T19:26:40.070Z,52.66
2022-09-29T19:29:08.667Z,52.60
2022-09-29T19:31:37.991Z,52.68
2022-09-29T19:34:06.917Z,52.70
2022-09-29T19:36:36.146Z,52.66
2022-09-29T19:39:05.199Z,52.78
2022-09-29T19:41:34.620Z,53.02
2022-09-29T19:44:02.954Z,52.90
2022-09-29T19:46:31.767Z,53.10
2022-09-29T19:48:59.914Z,53.44
2022-09-29T19:51:47.594Z,53.17
2022-09-29T19:54:19.048Z,53.19
2022-09-29T19:56:51.003Z,53.10
2022-09-29T19:59:21.623Z,53.11
2022-09-29T20:01:51.797Z,53.11
2022-09-29T20:04:25.872Z,53.08
2022-09-29T20:06:57.037Z,52.97
2022-09-29T20:09:25.804Z,53.00
2022-09-29T20:11:55.423Z,53.07
2022-09-29T20:14:24.671Z,53.10
2022-09-29T20:16:55.851Z,53.20
2022-09-29T20:19:24.644Z,53.23
2022-09-29T20:21:54.611Z,53.14
2022-09-29T20:24:24.057Z,53.22
2022-09-29T20:26:57.559Z,53.12
2022-09-29T20:29:27.525Z,53.17
2022-09-29T20:31:55.878Z,53.33
2022-09-29T20:34:24.386Z,53.21
2022-09-29T20:36:54.794Z,53.28
2022-09-29T20:39:25.629Z,53.30
2022-09-29T20:41:55.004Z,53.24
2022-09-29T20:44:25.787Z,53.33
2022-09-29T20:46:56.351Z,53.36
2022-09-29T20:49:25.316Z,53.61
2022-09-29T20:51:53.798Z,53.69
2022-09-29T20:54:22.771Z,53.68
2022-09-29T20:56:52.067Z,53.71
2022-09-29T20:59:23.313Z,53.91
2022-09-29T21:01:53.515Z,53.87
2022-09-29T21:04:23.454Z,54.00
2022-09-29T21:06:53.024Z,54.10
2022-09-29T21:09:23.244Z,54.12
2022-09-29T21:11:53.164Z,54.06
2022-09-29T21:14:24.175Z,54.04
2022-09-29T21:16:53.231Z,54.07
2022-09-29T21:19:26.340Z,53.99
2022-09-29T21:21:55.284Z,53.85
2022-09-29T21:24:23.830Z,53.80
2022-09-29T21:26:52.052Z,53.71
2022-09-29T21:29:20.756Z,54.04
2022-09-29T21:31:49.074Z,54.65
2022-09-29T21:34:17.552Z,55.14
2022-09-29T21:36:47.458Z,55.77
2022-09-29T21:39:16.879Z,56.42
2022-09-29T21:41:46.362Z,56.71
2022-09-29T21:44:18.013Z,56.32
2022-09-29T21:46:46.915Z,56.63
2022-09-29T21:49:18.018Z,56.60
2022-09-29T21:51:49.472Z,56.49
2022-09-29T21:54:19.753Z,57.00
2022-09-29T21:56:48.524Z,57.05
2022-09-29T21:59:18.855Z,56.89
2022-09-29T22:01:48.225Z,56.73
2022-09-29T22:04:16.993Z,56.88
2022-09-29T22:06:46.673Z,56.60
2022-09-29T22:09:18.787Z,56.22
2022-09-29T22:11:50.132Z,56.10
2022-09-29T22:14:19.300Z,56.61
2022-09-29T22:16:47.849Z,56.37
2022-09-29T22:19:23.309Z,56.28
2022-09-29T22:21:54.314Z,56.20
2022-09-29T22:24:23.947Z,56.51
2022-09-29T22:26:52.828Z,55.98
2022-09-29T22:29:21.345Z,56.14
2022-09-29T22:31:49.480Z,56.21
2022-09-29T22:34:17.870Z,56.08
2022-09-29T22:36:45.902Z,56.13
2022-09-29T22:39:15.352Z,56.02
2022-09-29T22:41:43.702Z,56.04
2022-09-29T22:44:12.327Z,56.15
2022-09-29T22:46:40.459Z,56.12
2022-09-29T22:49:09.036Z,56.08
2022-09-29T22:51:37.065Z,56.26
2022-09-29T22:54:05.208Z,56.16
2022-09-29T22:56:35.191Z,57.16
2022-09-29T22:59:05.105Z,57.04
2022-09-29T23:01:34.605Z,57.64
2022-09-29T23:04:04.220Z,56.98
2022-09-29T23:06:33.056Z,56.78
2022-09-29T23:09:01.402Z,56.60
2022-09-29T23:11:30.050Z,56.67
2022-09-29T23:14:00.979Z,56.55
2022-09-29T23:16:29.854Z,56.83
2022-09-29T23:18:58.959Z,56.75
2022-09-29T23:21:27.885Z,56.46
2022-09-29T23:23:57.849Z,56.31
2022-09-29T23:26:27.067Z,56.57
2022-09-29T23:28:56.180Z,56.34
2022-09-29T23:31:25.726Z,56.28
2022-09-29T23:33:55.980Z,56.31
2022-09-29T23:36:26.110Z,56.08
2022-09-29T23:39:14.195Z,56.20
2022-09-29T23:41:44.597Z,56.42
2022-09-29T23:44:14.547Z,56.26
2022-09-29T23:46:44.652Z,56.17
2022-09-29T23:49:15.045Z,56.26
2022-09-29T23:51:46.198Z,56.40
2022-09-29T23:54:16.114Z,56.46
2022-09-29T23:56:44.469Z,56.40
2022-09-29T23:59:12.620Z,56.67
